createdAt,value
2018-11-20T00:00:27.960Z,0.11
2018-11-20T00:03:16.985Z,0.07
2018-11-20T00:06:05.988Z,0.19
2018-11-20T00:08:44.058Z,0.14
2018-11-20T00:11:33.042Z,0.28
2018-11-20T00:14:22.030Z,0.20
2018-11-20T00:17:11.030Z,0.20
2018-11-20T00:20:00.059Z,0.13
2018-11-20T00:22:49.051Z,0.12
2018-11-20T00:25:38.074Z,0.08
2018-11-20T00:28:27.068Z,0.13
2018-11-20T00:31:16.090Z,0.11
2018-11-20T00:34:05.101Z,-0.02
2018-11-20T00:36:54.123Z,0.04
2018-11-20T00:39:43.106Z,0.03
2018-11-20T00:42:32.218Z,0.03
2018-11-20T00:45:21.104Z,0.14
2018-11-20T00:48:02.567Z,-0.02
2018-11-20T00:50:51.751Z,0.05
2018-11-20T00:53:40.751Z,0.15
2018-11-20T00:57:00.664Z,0.03
2018-11-20T00:59:49.112Z,0.03
2018-11-20T01:02:38.102Z,0.02
2018-11-20T01:05:27.792Z,0.06
2018-11-20T01:08:19.855Z,0.17
2018-11-20T01:11:05.743Z,0.07
2018-11-20T01:13:54.738Z,0.16
2018-11-20T01:16:43.757Z,0.24
2018-11-20T01:19:32.719Z,0.15
2018-11-20T01:22:21.726Z,0.09
2018-11-20T01:25:10.728Z,0.07
2018-11-20T01:28:18.685Z,0.07
2018-11-20T01:31:07.722Z,0.18
2018-11-20T01:33:56.746Z,0.08
2018-11-20T01:36:36.310Z,0.17
2018-11-20T01:39:27.577Z,0.11
2018-11-20T01:42:16.594Z,0.10
2018-11-20T01:45:05.591Z,0.08
2018-11-20T01:47:54.578Z,0.11
2018-11-20T01:50:43.573Z,0.04
2018-11-20T01:53:32.568Z,0.07
2018-11-20T01:56:21.577Z,0.05
2018-11-20T01:59:10.550Z,0.14
2018-11-20T02:01:59.605Z,0.23
2018-11-20T02:04:48.598Z,0.26
2018-11-20T02:07:41.333Z,0.30
2018-11-20T02:10:30.383Z,0.32
2018-11-20T02:13:57.373Z,0.33
2018-11-20T02:16:47.870Z,0.26
2018-11-20T02:19:36.882Z,0.27
2018-11-20T02:22:25.939Z,0.36
2018-11-20T02:25:14.934Z,0.34
2018-11-20T02:28:03.903Z,0.40
2018-11-20T02:30:52.942Z,0.43
2018-11-20T02:33:41.999Z,0.46
2018-11-20T02:36:30.932Z,0.48
2018-11-20T02:39:31.304Z,0.54
2018-11-20T02:42:31.906Z,0.50
2018-11-20T02:45:32.187Z,0.44
2018-11-20T02:48:21.222Z,0.53
2018-11-20T02:51:10.404Z,0.45
2018-11-20T02:54:02.145Z,0.43
2018-11-20T02:56:48.361Z,0.51
2018-11-20T02:59:37.363Z,0.49
2018-11-20T03:02:26.364Z,0.43
2018-11-20T03:05:15.426Z,0.46
2018-11-20T03:08:23.369Z,0.43
2018-11-20T03:11:12.366Z,0.44
2018-11-20T03:14:01.406Z,0.41
2018-11-20T03:17:01.794Z,0.46
2018-11-20T03:19:50.772Z,0.49
2018-11-20T03:22:29.795Z,0.53
2018-11-20T03:25:18.783Z,0.52
2018-11-20T03:28:07.789Z,0.54
2018-11-20T03:31:17.091Z,0.55
2018-11-20T03:34:25.133Z,0.46
2018-11-20T03:37:14.128Z,0.49
2018-11-20T03:40:22.150Z,0.57
2018-11-20T03:43:11.173Z,0.66
2018-11-20T03:46:00.229Z,0.64
2018-11-20T03:48:49.258Z,0.61
2018-11-20T03:51:38.271Z,0.65
2018-11-20T03:54:29.196Z,0.72
2018-11-20T03:57:23.080Z,0.67
2018-11-20T04:00:07.943Z,0.66
2018-11-20T04:02:54.334Z,0.62
2018-11-20T04:05:43.358Z,0.61
2018-11-20T04:08:32.358Z,0.59
2018-11-20T04:11:40.302Z,0.57
2018-11-20T04:14:48.337Z,0.68
2018-11-20T04:17:37.337Z,0.74
2018-11-20T04:20:26.327Z,0.81
2018-11-20T04:23:22.012Z,0.86
2018-11-20T04:26:10.998Z,0.89
2018-11-20T04:28:59.988Z,0.74
2018-11-20T04:32:29.761Z,0.77
2018-11-20T04:35:22.002Z,0.86
2018-11-20T04:38:09.153Z,0.88
2018-11-20T04:41:04.861Z,0.91
2018-11-20T04:43:47.219Z,0.98
2018-11-20T04:46:36.422Z,0.96
2018-11-20T04:49:40.305Z,0.90
2018-11-20T04:52:29.336Z,0.82
2018-11-20T04:55:18.461Z,0.86
2018-11-20T04:58:07.392Z,0.85
2018-11-20T05:00:56.385Z,0.89
2018-11-20T05:03:49.314Z,0.95
2018-11-20T05:06:38.338Z,0.98
2018-11-20T05:09:29.372Z,0.90
2018-11-20T05:12:18.410Z,0.90
2018-11-20T05:18:10.173Z,0.91
2018-11-20T05:20:56.456Z,0.88
2018-11-20T05:23:45.552Z,0.86
2018-11-20T05:26:34.547Z,1.02
2018-11-20T05:29:42.575Z,0.95
2018-11-20T05:35:39.555Z,0.98
2018-11-20T05:38:28.606Z,1.00
2018-11-20T05:41:17.691Z,1.01
2018-11-20T05:44:06.835Z,0.97
2018-11-20T05:46:49.363Z,1.02
2018-11-20T05:52:51.015Z,1.06
2018-11-20T05:55:51.893Z,1.05
2018-11-20T05:58:40.974Z,1.05
2018-11-20T06:01:48.991Z,1.07
2018-11-20T06:04:37.999Z,1.17
2018-11-20T06:07:27.043Z,1.27
2018-11-20T06:10:16.077Z,1.30
2018-11-20T06:12:54.147Z,1.22
2018-11-20T06:18:51.253Z,1.29
2018-11-20T06:21:51.595Z,1.35
2018-11-20T06:24:40.564Z,1.36
2018-11-20T06:27:29.548Z,1.38
2018-11-20T06:30:20.664Z,1.36
2018-11-20T06:33:07.675Z,1.35
2018-11-20T06:35:56.693Z,1.42
2018-11-20T06:38:45.698Z,1.43
2018-11-20T06:41:34.765Z,1.52
2018-11-20T06:44:26.840Z,1.58
2018-11-20T06:47:24.691Z,1.56
2018-11-20T06:50:19.557Z,1.59
2018-11-20T06:53:08.844Z,1.69
2018-11-20T06:56:23.321Z,1.71
2018-11-20T06:59:05.630Z,1.67
2018-11-20T07:01:54.680Z,1.77
2018-11-20T07:04:45.669Z,1.84
2018-11-20T07:07:52.022Z,1.85
2018-11-20T07:10:40.882Z,1.91
2018-11-20T07:13:39.203Z,1.94
2018-11-20T07:16:57.318Z,1.99
2018-11-20T07:19:48.992Z,2.10
2018-11-20T07:22:38.078Z,2.16
2018-11-20T07:25:27.515Z,2.31
2018-11-20T07:28:16.489Z,2.29
2018-11-20T07:31:05.539Z,2.36
2018-11-20T07:33:57.196Z,2.36
2018-11-20T07:36:43.748Z,2.37
2018-11-20T07:39:32.613Z,2.41
2018-11-20T07:42:21.615Z,2.46
2018-11-20T07:47:50.908Z,2.47
2018-11-20T07:50:39.895Z,2.55
2018-11-20T07:53:41.893Z,2.58
2018-11-20T07:56:30.879Z,2.50
2018-11-20T07:59:19.993Z,2.41
2018-11-20T08:02:09.071Z,2.40
2018-11-20T08:04:59.891Z,2.42
2018-11-20T08:07:47.136Z,2.39
2018-11-20T08:10:36.175Z,2.34
2018-11-20T08:13:25.358Z,2.34
2018-11-20T08:16:33.513Z,2.43
2018-11-20T08:19:34.578Z,2.51
2018-11-20T08:22:26.659Z,2.53
2018-11-20T08:25:34.481Z,2.53
2018-11-20T08:28:20.795Z,2.55
2018-11-20T08:31:09.907Z,2.56
2018-11-20T08:33:58.974Z,2.67
2018-11-20T08:37:03.067Z,2.77
2018-11-20T08:39:37.086Z,2.83
2018-11-20T08:45:32.120Z,3.15
2018-11-20T08:48:21.301Z,3.23
2018-11-20T08:51:12.317Z,3.11
2018-11-20T08:56:48.308Z,3.12
2018-11-20T08:59:40.298Z,3.18
2018-11-20T09:02:45.505Z,3.27
2018-11-20T09:05:34.315Z,3.31
2018-11-20T09:08:23.379Z,3.36
2018-11-20T09:11:31.370Z,3.45
2018-11-20T09:14:39.435Z,3.48
2018-11-20T09:17:31.438Z,3.53
2018-11-20T09:20:17.533Z,3.71
2018-11-20T09:22:55.871Z,3.83
2018-11-20T09:25:45.085Z,3.79
2018-11-20T09:28:41.534Z,3.83
2018-11-20T09:31:30.531Z,3.67
2018-11-20T09:34:34.175Z,3.58
2018-11-20T09:37:37.778Z,3.72
2018-11-20T09:41:06.702Z,3.73
2018-11-20T09:44:31.805Z,3.93
2018-11-20T09:47:20.939Z,4.10
2018-11-20T09:50:10.001Z,3.92
2018-11-20T09:53:18.157Z,3.89
2018-11-20T09:56:26.191Z,4.04
2018-11-20T09:59:29.804Z,3.90
2018-11-20T10:02:09.535Z,3.93
2018-11-20T10:04:58.524Z,4.04
2018-11-20T10:07:47.529Z,4.30
2018-11-20T10:10:36.520Z,4.36
2018-11-20T10:13:25.538Z,4.31
2018-11-20T10:16:29.380Z,4.44
2018-11-20T10:19:05.770Z,4.51
2018-11-20T10:21:52.987Z,4.42
2018-11-20T10:24:42.014Z,4.57
2018-11-20T10:27:21.770Z,4.89
2018-11-20T10:32:59.784Z,5.15
2018-11-20T10:35:48.913Z,4.90
2018-11-20T10:38:42.794Z,5.16
2018-11-20T10:41:33.733Z,5.15
2018-11-20T10:44:34.917Z,5.01
2018-11-20T10:47:24.060Z,5.23
2018-11-20T10:50:32.077Z,5.58
2018-11-20T10:53:21.600Z,5.70
2018-11-20T10:56:10.593Z,5.58
2018-11-20T10:58:59.595Z,6.18
2018-11-20T11:01:48.592Z,6.48
2018-11-20T11:04:26.756Z,6.70
2018-11-20T11:07:27.726Z,6.94
2018-11-20T11:10:16.860Z,7.91
2018-11-20T11:13:05.933Z,8.08
2018-11-20T11:15:54.931Z,8.69
2018-11-20T11:18:43.925Z,9.12
2018-11-20T11:21:35.563Z,9.99
2018-11-20T11:24:21.989Z,11.13
2018-11-20T11:27:11.026Z,11.75
2018-11-20T11:30:00.024Z,12.54
2018-11-20T11:32:49.069Z,13.35
2018-11-20T11:35:50.386Z,13.78
2018-11-20T11:38:39.419Z,14.33
2018-11-20T11:41:28.420Z,15.61
2018-11-20T11:44:17.437Z,16.64
2018-11-20T11:47:06.499Z,16.59
2018-11-20T11:50:27.201Z,17.00
2018-11-20T11:52:44.537Z,16.91
2018-11-20T11:55:33.590Z,18.28
2018-11-20T11:58:22.598Z,17.90
2018-11-20T12:01:11.875Z,18.06
2018-11-20T12:03:49.308Z,18.28
2018-11-20T12:06:38.290Z,18.75
2018-11-20T12:09:28.674Z,18.30
2018-11-20T12:12:18.007Z,19.76
2018-11-20T12:15:26.691Z,20.09
2018-11-20T12:18:15.728Z,20.03
2018-11-20T12:21:12.017Z,19.22
2018-11-20T12:24:05.657Z,20.63
2018-11-20T12:26:54.670Z,20.63
2018-11-20T12:29:43.687Z,21.08
2018-11-20T12:32:32.697Z,20.70
2018-11-20T12:35:30.400Z,19.23
2018-11-20T12:38:10.853Z,20.75
2018-11-20T12:40:59.869Z,20.90
2018-11-20T12:44:05.870Z,20.40
2018-11-20T12:46:52.216Z,20.40
2018-11-20T12:49:41.213Z,20.66
2018-11-20T12:52:30.324Z,19.78
2018-11-20T12:55:13.808Z,19.71
2018-11-20T12:58:06.102Z,19.71
2018-11-20T13:00:55.232Z,20.31
2018-11-20T13:03:52.975Z,21.10
2018-11-20T13:06:40.275Z,22.35
2018-11-20T13:09:20.823Z,20.72
2018-11-20T13:12:07.250Z,21.17
2018-11-20T13:15:02.290Z,21.47
2018-11-20T13:17:49.097Z,20.63
2018-11-20T13:20:34.815Z,20.38
2018-11-20T13:23:25.428Z,20.59
2018-11-20T13:26:14.701Z,20.65
2018-11-20T13:29:03.718Z,21.36
2018-11-20T13:31:51.250Z,21.36
2018-11-20T13:34:59.698Z,21.31
2018-11-20T13:38:00.874Z,20.43
2018-11-20T13:41:22.584Z,21.55
2018-11-20T13:44:12.068Z,21.64
2018-11-20T13:47:01.012Z,21.37
2018-11-20T13:49:58.404Z,21.01
2018-11-20T13:52:38.074Z,21.70
2018-11-20T13:55:42.052Z,20.72
2018-11-20T13:58:28.403Z,21.86
2018-11-20T14:01:19.968Z,20.93
2018-11-20T14:04:04.021Z,20.89
2018-11-20T14:07:01.714Z,20.45
2018-11-20T14:09:53.699Z,20.43
2018-11-20T14:12:46.809Z,19.91
2018-11-20T14:15:38.350Z,20.43
2018-11-20T14:18:29.929Z,19.49
2018-11-20T14:21:12.092Z,18.82
2018-11-20T14:23:53.285Z,18.72
2018-11-20T14:26:40.854Z,18.39
2018-11-20T14:29:28.450Z,17.01
2018-11-20T14:32:20.187Z,16.81
2018-11-20T14:35:07.466Z,15.55
2018-11-20T14:38:14.249Z,13.86
2018-11-20T14:41:14.844Z,12.85
2018-11-20T14:44:02.666Z,11.62
2018-11-20T14:46:50.009Z,10.72
2018-11-20T14:49:44.892Z,11.08
2018-11-20T14:52:30.969Z,10.77
2018-11-20T14:55:18.801Z,10.05
2018-11-20T14:58:06.297Z,9.34
2018-11-20T15:00:56.027Z,8.75
2018-11-20T15:03:41.701Z,8.50
2018-11-20T15:06:46.517Z,8.13
2018-11-20T15:09:43.583Z,7.77
2018-11-20T15:12:30.930Z,7.52
2018-11-20T15:15:18.437Z,7.38
2018-11-20T15:18:25.641Z,7.01
2018-11-20T15:21:13.057Z,6.77
2018-11-20T15:24:11.048Z,6.68
2018-11-20T15:27:02.638Z,6.56
2018-11-20T15:29:43.239Z,6.33
2018-11-20T15:32:36.933Z,6.26
2018-11-20T15:35:29.202Z,6.11
2018-11-20T15:38:17.064Z,5.89
2018-11-20T15:40:59.305Z,5.87
2018-11-20T15:44:00.045Z,5.81
2018-11-20T15:46:43.415Z,5.68
2018-11-20T15:49:41.701Z,5.56
2018-11-20T15:52:29.137Z,5.46
2018-11-20T15:55:30.173Z,5.40
2018-11-20T15:58:17.717Z,5.22
2018-11-20T16:01:05.095Z,5.09
2018-11-20T16:04:05.969Z,4.93
2018-11-20T16:06:53.512Z,5.01
2018-11-20T16:09:41.151Z,4.93
2018-11-20T16:12:22.250Z,4.94
2018-11-20T16:15:14.294Z,4.98
2018-11-20T16:18:02.408Z,4.86
2018-11-20T16:20:49.767Z,4.69
2018-11-20T16:23:34.785Z,4.65
2018-11-20T16:26:13.894Z,4.48
2018-11-20T16:29:01.270Z,4.60
2018-11-20T16:31:42.911Z,4.58
2018-11-20T16:34:30.179Z,4.40
2018-11-20T16:37:13.514Z,4.24
2018-11-20T16:40:00.868Z,4.24
2018-11-20T16:42:49.027Z,4.16
2018-11-20T16:45:36.492Z,4.12
2018-11-20T16:48:31.631Z,4.15
2018-11-20T16:51:18.918Z,4.05
2018-11-20T16:54:07.889Z,4.21
2018-11-20T16:57:04.519Z,4.04
2018-11-20T16:59:52.053Z,3.98
2018-11-20T17:02:41.055Z,3.87
2018-11-20T17:05:28.533Z,3.79
2018-11-20T17:08:17.540Z,3.66
2018-11-20T17:11:05.022Z,3.68
2018-11-20T17:13:54.037Z,3.51
2018-11-20T17:16:42.550Z,3.51
2018-11-20T17:19:34.596Z,3.54
2018-11-20T17:22:22.014Z,3.47
2018-11-20T17:25:10.460Z,3.43
2018-11-20T17:27:58.052Z,3.35
2018-11-20T17:30:47.070Z,3.37
2018-11-20T17:33:38.276Z,3.26
2018-11-20T17:36:36.190Z,3.27
2018-11-20T17:39:23.967Z,3.21
2018-11-20T17:42:24.920Z,3.14
2018-11-20T17:45:09.124Z,3.16
2018-11-20T17:47:48.834Z,3.20
2018-11-20T17:50:52.972Z,3.22
2018-11-20T17:54:00.213Z,3.14
2018-11-20T17:56:47.542Z,3.12
2018-11-20T17:59:39.789Z,3.08
2018-11-20T18:02:37.766Z,3.05
2018-11-20T18:05:37.824Z,3.03
2018-11-20T18:08:25.033Z,2.95
2018-11-20T18:11:31.964Z,2.90
2018-11-20T18:14:19.433Z,2.99
2018-11-20T18:17:20.243Z,2.87
2018-11-20T18:20:00.722Z,2.98
2018-11-20T18:22:58.708Z,2.83
2018-11-20T18:25:49.768Z,2.73
2018-11-20T18:28:47.563Z,2.68
2018-11-20T18:31:48.282Z,2.80
2018-11-20T18:34:45.995Z,2.63
2018-11-20T18:37:33.332Z,2.70
2018-11-20T18:40:21.574Z,2.53
2018-11-20T18:43:01.905Z,2.47
2018-11-20T18:45:58.403Z,2.29
2018-11-20T18:48:49.783Z,2.38
2018-11-20T18:51:44.556Z,2.23
2018-11-20T18:54:32.143Z,2.32
2018-11-20T18:57:19.344Z,2.20
2018-11-20T19:00:10.644Z,2.27
2018-11-20T19:03:05.561Z,2.35
2018-11-20T19:05:53.001Z,2.53
2018-11-20T19:08:35.865Z,2.16
2018-11-20T19:11:23.603Z,2.20
2018-11-20T19:14:08.251Z,2.19
2018-11-20T19:16:55.727Z,1.98
2018-11-20T19:19:47.597Z,1.94
2018-11-20T19:22:35.059Z,2.08
2018-11-20T19:25:22.372Z,2.05
2018-11-20T19:28:17.429Z,1.90
2018-11-20T19:31:00.590Z,1.73
2018-11-20T19:33:47.848Z,1.76
2018-11-20T19:36:36.840Z,1.73
2018-11-20T19:39:27.798Z,1.80
2018-11-20T19:42:15.042Z,1.81
2018-11-20T19:45:02.764Z,1.76
2018-11-20T19:48:00.665Z,1.77
2018-11-20T19:51:01.541Z,1.66
2018-11-20T19:54:02.879Z,1.71
2018-11-20T19:56:50.314Z,1.82
2018-11-20T19:59:42.439Z,1.78
2018-11-20T20:02:29.958Z,1.80
2018-11-20T20:05:17.435Z,1.73
2018-11-20T20:08:12.140Z,1.64
2018-11-20T20:11:16.079Z,1.53
2018-11-20T20:14:07.816Z,1.65
2018-11-20T20:17:14.722Z,1.61
2018-11-20T20:20:18.489Z,1.45
2018-11-20T20:23:07.312Z,1.56
2018-11-20T20:25:54.556Z,1.40
2018-11-20T20:28:42.022Z,1.35
2018-11-20T20:31:29.551Z,1.32
2018-11-20T20:34:17.378Z,1.23
2018-11-20T20:37:15.130Z,1.16
2018-11-20T20:40:02.518Z,1.20
2018-11-20T20:42:57.293Z,1.20
2018-11-20T20:45:43.430Z,1.13
2018-11-20T20:48:26.407Z,1.23
2018-11-20T20:51:05.491Z,1.27
2018-11-20T20:54:12.571Z,1.21
2018-11-20T20:56:57.126Z,1.07
2018-11-20T20:59:44.575Z,1.06
2018-11-20T21:02:23.482Z,1.19
2018-11-20T21:05:13.273Z,1.03
2018-11-20T21:08:08.147Z,0.96
2018-11-20T21:11:02.866Z,1.01
2018-11-20T21:14:01.101Z,0.91
2018-11-20T21:16:48.109Z,0.99
2018-11-20T21:19:35.812Z,0.93
2018-11-20T21:22:24.928Z,1.01
2018-11-20T21:25:26.059Z,0.92
2018-11-20T21:28:24.133Z,0.99
2018-11-20T21:31:21.979Z,0.99
2018-11-20T21:34:09.699Z,1.26
2018-11-20T21:36:57.397Z,1.04
2018-11-20T21:40:04.497Z,0.91
2018-11-20T21:43:11.413Z,0.92
2018-11-20T21:45:59.183Z,1.16
2018-11-20T21:48:46.841Z,1.10
2018-11-20T21:51:34.666Z,1.13
2018-11-20T21:54:35.849Z,1.05
2018-11-20T21:57:20.926Z,0.97
2018-11-20T22:00:11.881Z,0.97
2018-11-20T22:02:53.758Z,0.81
2018-11-20T22:05:41.262Z,0.92
2018-11-20T22:08:32.831Z,0.73
2018-11-20T22:11:20.485Z,0.68
2018-11-20T22:14:09.504Z,1.01
2018-11-20T22:16:57.841Z,0.88
2018-11-20T22:19:45.240Z,0.62
2018-11-20T22:22:32.938Z,0.80
2018-11-20T22:25:24.791Z,0.82
2018-11-20T22:28:23.980Z,1.07
2018-11-20T22:31:12.997Z,1.25
2018-11-20T22:33:56.888Z,1.20
2018-11-20T22:36:44.153Z,0.73
2018-11-20T22:39:33.165Z,0.73
2018-11-20T22:42:31.087Z,0.64
2018-11-20T22:45:12.910Z,0.40
2018-11-20T22:48:10.071Z,0.25
2018-11-20T22:51:01.921Z,0.17
2018-11-20T22:53:42.485Z,0.18
2018-11-20T22:56:34.180Z,0.14
2018-11-20T22:59:19.295Z,0.07
2018-11-20T23:02:01.315Z,0.01
2018-11-20T23:04:57.250Z,0.07
2018-11-20T23:07:44.774Z,0.03
2018-11-20T23:10:19.286Z,0.03
2018-11-20T23:12:49.672Z,0.02
2018-11-20T23:15:19.946Z,0.19
2018-11-20T23:17:50.397Z,0.07
2018-11-20T23:20:20.681Z,0.10
2018-11-20T23:22:51.025Z,0.19
2018-11-20T23:25:21.308Z,0.35
2018-11-20T23:27:51.597Z,0.45
2018-11-20T23:30:21.921Z,0.59
2018-11-20T23:32:52.218Z,0.77
2018-11-20T23:35:22.570Z,0.35
2018-11-20T23:37:52.952Z,0.43
2018-11-20T23:40:23.335Z,0.60
2018-11-20T23:42:53.808Z,0.63
2018-11-20T23:45:24.194Z,0.68
2018-11-20T23:47:54.565Z,0.59
2018-11-20T23:50:24.912Z,0.38
2018-11-20T23:52:55.365Z,0.28
2018-11-20T23:55:28.454Z,0.11
2018-11-20T23:57:56.088Z,0.16
